Time;durP1;ratioP1;P1;durP2;ratioP2;P2;SDS_P1;SDS_P2;PMS_P1;PMS_P2;Temp;Humidity;BMP_temperature;BMP_pressure;BME280_temperature;BME280_humidity;BME280_pressure;Samples;Min_cycle;Max_cycle;Signal;HPM_P1;HPM_P2
2022/09/23 00:00:48;;;;;;;0.10;0.10;;;;;;;11.08;82.20;99605.50;5043070;28;20520;-71
2022/09/23 00:03:20;;;;;;;0.10;0.10;;;;;;;11.06;82.11;99607.72;5026098;28;20049;-71
2022/09/23 00:05:57;;;;;;;0.10;0.10;;;;;;;11.01;82.07;99600.38;5044384;28;20052;-70
2022/09/23 00:08:23;;;;;;;0.10;0.10;;;;;;;10.99;82.08;99604.50;5022731;28;20045;-72
2022/09/23 00:10:49;;;;;;;0.10;0.10;;;;;;;10.94;82.38;99593.59;5021629;28;20402;-71
2022/09/23 00:13:15;;;;;;;0.20;0.20;;;;;;;10.87;82.77;99599.38;5023976;28;20050;-71
2022/09/23 00:15:42;;;;;;;0.22;0.20;;;;;;;10.87;82.95;99594.69;5007782;28;20587;-72
2022/09/23 00:18:08;;;;;;;0.10;0.10;;;;;;;10.87;82.93;99597.44;5030823;28;20069;-69
2022/09/23 00:20:35;;;;;;;0.10;0.10;;;;;;;10.87;83.31;99593.88;5029192;28;20049;-70
2022/09/23 00:23:01;;;;;;;0.10;0.10;;;;;;;10.88;82.96;99601.78;5043178;28;20048;-70
2022/09/23 00:25:28;;;;;;;0.10;0.10;;;;;;;10.85;82.89;99594.16;5041452;28;20048;-70
2022/09/23 00:27:54;;;;;;;0.20;0.20;;;;;;;10.85;83.11;99599.63;5041899;28;20045;-71
2022/09/23 00:30:22;;;;;;;0.10;0.10;;;;;;;10.88;83.29;99603.72;5044550;28;20048;-70
2022/09/23 00:32:51;;;;;;;;;;;;;;;10.83;83.32;99604.56;5039415;28;20049;-70
2022/09/23 00:35:17;;;;;;;0.10;0.10;;;;;;;10.83;83.31;99596.38;5046134;28;20023;-70
2022/09/23 00:37:43;;;;;;;0.10;0.10;;;;;;;10.81;83.38;99604.03;5043247;28;20452;-71
2022/09/23 00:40:11;;;;;;;0.20;0.20;;;;;;;10.81;83.47;99593.09;5008382;28;20072;-71
2022/09/23 00:42:37;;;;;;;0.20;0.20;;;;;;;10.83;83.47;99603.75;5038354;28;20045;-71
2022/09/23 00:45:03;;;;;;;0.20;0.20;;;;;;;10.88;83.61;99610.00;5041819;28;20147;-71
2022/09/23 00:47:33;;;;;;;0.13;0.13;;;;;;;10.89;83.46;99610.84;5040584;28;20069;-74
2022/09/23 00:50:05;;;;;;;0.20;0.20;;;;;;;10.86;83.18;99612.22;5044506;28;20571;-70
2022/09/23 00:52:32;;;;;;;0.10;0.10;;;;;;;10.79;83.13;99614.44;5061645;28;20041;-70
2022/09/23 00:55:01;;;;;;;0.10;0.10;;;;;;;10.74;83.60;99611.72;5062889;28;20527;-68
2022/09/23 00:57:30;;;;;;;0.10;0.10;;;;;;;10.78;83.57;99613.59;5062232;28;20048;-70
2022/09/23 00:59:56;;;;;;;0.10;0.10;;;;;;;10.74;83.51;99615.28;5046184;28;20495;-70
2022/09/23 01:02:23;;;;;;;0.20;0.20;;;;;;;10.76;83.72;99617.72;5049044;28;20051;-70
2022/09/23 01:04:50;;;;;;;0.20;0.20;;;;;;;10.77;83.97;99622.91;5040790;28;20052;-72
2022/09/23 01:07:17;;;;;;;0.10;0.10;;;;;;;10.79;83.89;99614.44;5042316;28;20436;-70
2022/09/23 01:09:44;;;;;;;0.10;0.10;;;;;;;10.80;83.79;99613.34;5042383;28;20045;-72
2022/09/23 01:12:25;;;;;;;0.10;0.10;;;;;;;10.75;83.85;99613.34;5022205;28;20057;-69
2022/09/23 01:15:01;;;;;;;0.10;0.10;;;;;;;10.77;83.68;99614.72;5021073;28;20053;-70
2022/09/23 01:17:36;;;;;;;0.15;0.15;;;;;;;10.76;83.52;99615.81;5022920;28;20380;-70
2022/09/23 01:20:27;;;;;;;0.10;0.10;;;;;;;10.71;83.38;99606.81;5019816;28;20540;-70
2022/09/23 01:23:10;;;;;;;0.10;0.10;;;;;;;10.63;83.62;99605.47;5023222;28;20057;-69
2022/09/23 01:25:56;;;;;;;0.10;0.10;;;;;;;10.63;83.89;99608.22;5021886;28;20056;-71
2022/09/23 01:28:40;;;;;;;0.20;0.20;;;;;;;10.68;83.95;99604.66;5037407;28;20060;-71
2022/09/23 01:31:14;;;;;;;0.10;0.10;;;;;;;10.65;83.53;99600.53;5037714;28;20072;-70
2022/09/23 01:33:46;;;;;;;0.52;0.13;;;;;;;10.69;83.13;99606.28;5036408;28;20127;-69
2022/09/23 01:36:20;;;;;;;0.10;0.10;;;;;;;10.68;82.60;99596.44;5024083;28;20075;-70
2022/09/23 01:38:57;;;;;;;0.10;0.10;;;;;;;10.71;82.62;99609.53;5043305;28;20326;-70
2022/09/23 01:41:39;;;;;;;0.43;0.17;;;;;;;10.73;82.63;99615.53;5046896;28;20087;-70
2022/09/23 01:44:09;;;;;;;0.10;0.10;;;;;;;10.74;82.29;99615.28;5043878;28;20431;-70
2022/09/23 01:46:46;;;;;;;0.15;0.15;;;;;;;10.72;82.12;99616.66;5044363;28;20160;-70
2022/09/23 01:49:19;;;;;;;0.10;0.10;;;;;;;10.67;82.43;99620.22;5041941;28;20222;-70
2022/09/23 01:51:50;;;;;;;0.15;0.15;;;;;;;10.72;82.36;99628.41;5041045;28;20048;-69
2022/09/23 01:54:23;;;;;;;0.10;0.10;;;;;;;10.72;82.28;99619.38;5043810;28;20061;-71
2022/09/23 01:56:55;;;;;;;0.10;0.10;;;;;;;10.70;82.62;99616.13;5042461;28;20608;-70
2022/09/23 01:59:28;;;;;;;0.10;0.10;;;;;;;10.72;82.65;99613.91;5043263;28;20476;-70
2022/09/23 02:02:01;;;;;;;0.10;0.10;;;;;;;10.73;82.86;99618.28;5044405;28;20052;-70
2022/09/23 02:04:33;;;;;;;0.10;0.10;;;;;;;10.74;82.35;99618.00;5041811;28;20359;-70
2022/09/23 02:07:04;;;;;;;0.10;0.10;;;;;;;10.72;82.25;99622.13;5042889;28;20457;-71
2022/09/23 02:09:36;;;;;;;0.10;0.10;;;;;;;10.70;82.33;99619.69;5041882;28;20118;-70
2022/09/23 02:12:07;;;;;;;0.10;0.10;;;;;;;10.69;82.51;99619.94;5024445;28;20418;-70
2022/09/23 02:14:41;;;;;;;0.10;0.10;;;;;;;10.65;82.49;99611.47;5044994;28;20130;-70
2022/09/23 02:17:11;;;;;;;0.10;0.10;;;;;;;10.65;82.17;99619.69;5024051;28;20152;-71
2022/09/23 02:19:43;;;;;;;0.10;0.10;;;;;;;10.67;82.23;99620.22;5020253;28;20057;-68
2022/09/23 02:22:15;;;;;;;0.10;0.10;;;;;;;10.68;82.36;99612.84;5022476;28;20156;-69
2022/09/23 02:24:41;;;;;;;0.10;0.10;;;;;;;10.68;82.61;99615.59;5022479;28;20049;-71
2022/09/23 02:27:17;;;;;;;0.10;0.10;;;;;;;10.69;82.43;99612.53;5043891;28;20046;-71
2022/09/23 02:29:48;;;;;;;0.10;0.10;;;;;;;10.74;82.67;99615.28;5059250;28;20056;-71
2022/09/23 02:32:21;;;;;;;0.10;0.10;;;;;;;10.27;82.44;99542.72;5066219;28;20048;-71
2022/09/23 02:34:59;;;;;;;0.10;0.10;;;;;;;10.74;82.86;99619.91;5065765;28;20678;-71
2022/09/23 02:37:30;;;;;;;;;;;;;;;10.75;82.77;99616.09;5063254;28;20102;-70
2022/09/23 02:40:01;;;;;;;0.10;0.10;;;;;;;10.72;82.61;99617.47;5063460;28;19924;-71
2022/09/23 02:42:38;;;;;;;0.10;0.10;;;;;;;10.72;82.56;99603.81;5066252;28;20045;-70
2022/09/23 02:45:04;;;;;;;0.10;0.10;;;;;;;10.74;82.71;99608.97;5063608;28;20594;-70
2022/09/23 02:47:35;;;;;;;0.10;0.10;;;;;;;10.72;82.28;99608.44;5063429;28;20063;-70
2022/09/23 02:50:01;;;;;;;0.10;0.10;;;;;;;10.72;82.65;99606.53;5063698;28;20064;-71
2022/09/23 02:52:27;;;;;;;0.10;0.10;;;;;;;10.73;82.39;99601.88;5064358;28;20139;-71
2022/09/23 02:54:53;;;;;;;0.10;0.10;;;;;;;10.62;82.30;99587.44;5064914;28;20118;-71
2022/09/23 02:57:19;;;;;;;0.10;0.10;;;;;;;10.72;82.07;99608.44;5063114;28;20398;-71
2022/09/23 02:59:46;;;;;;;0.20;0.20;;;;;;;10.73;81.98;99604.59;5063340;28;20573;-71
2022/09/23 03:02:34;;;;;;;0.10;0.10;;;;;;;10.52;82.21;99574.63;5068514;28;20074;-70
2022/09/23 03:05:07;;;;;;;0.10;0.10;;;;;;;10.68;82.13;99602.72;5066004;28;20098;-70
2022/09/23 03:07:48;;;;;;;0.10;0.10;;;;;;;10.69;82.23;99609.00;5064761;28;20048;-70
2022/09/23 03:10:21;;;;;;;0.10;0.10;;;;;;;10.71;81.85;99606.81;5064618;28;20498;-70
2022/09/23 03:12:56;;;;;;;0.10;0.10;;;;;;;10.71;82.09;99602.16;5067719;28;20044;-69
2022/09/23 03:15:32;;;;;;;0.10;0.10;;;;;;;10.70;82.03;99608.75;5067128;28;20056;-68
2022/09/23 03:18:10;;;;;;;0.10;0.10;;;;;;;10.74;81.67;99611.72;5068403;28;20079;-70
2022/09/23 03:20:44;;;;;;;0.10;0.10;;;;;;;10.72;81.89;99611.19;5067109;28;20447;-71
2022/09/23 03:23:14;;;;;;;0.10;0.10;;;;;;;10.73;81.90;99613.66;5064862;28;20147;-71
2022/09/23 03:25:44;;;;;;;0.10;0.10;;;;;;;10.76;82.09;99610.34;5067182;28;20060;-71
2022/09/23 03:28:11;;;;;;;0.10;0.10;;;;;;;10.82;81.69;99615.78;5065929;28;20048;-69
2022/09/23 03:30:39;;;;;;;0.10;0.10;;;;;;;10.81;81.81;99612.25;5064794;28;20037;-70
2022/09/23 03:33:08;;;;;;;0.10;0.10;;;;;;;10.80;81.56;99616.06;5063182;28;20242;-70
2022/09/23 03:36:48;;;;;;;0.10;0.10;;;;;;;10.77;81.68;99614.72;5063621;28;20048;-72
2022/09/23 03:38:32;;;;;;;0.10;0.10;;;;;;;10.78;81.46;99613.59;5065925;28;20059;-70
2022/09/23 03:41:03;;;;;;;0.10;0.10;;;;;;;10.79;81.25;99617.19;5064710;28;20567;-70
2022/09/23 03:43:30;;;;;;;0.10;0.10;;;;;;;10.77;81.39;99617.44;5063194;28;20044;-70
2022/09/23 03:45:57;;;;;;;0.10;0.10;;;;;;;10.77;81.45;99613.88;5068386;28;20140;-70
2022/09/23 03:48:22;;;;;;;0.10;0.10;;;;;;;10.76;81.46;99606.78;5064809;28;20210;-70
2022/09/23 03:50:49;;;;;;;0.10;0.10;;;;;;;10.74;81.50;99600.78;5064327;28;20079;-70
2022/09/23 03:53:16;;;;;;;0.10;0.10;;;;;;;10.72;81.62;99589.31;5062639;28;20052;-69
2022/09/23 03:55:45;;;;;;;0.10;0.10;;;;;;;10.80;81.69;99596.94;5063662;28;20099;-70
2022/09/23 03:58:11;;;;;;;0.20;0.20;;;;;;;10.80;81.78;99591.47;5063361;28;20048;-70
2022/09/23 04:00:37;;;;;;;0.10;0.10;;;;;;;10.77;81.40;99587.38;5065942;28;20217;-70
2022/09/23 04:03:04;;;;;;;0.10;0.10;;;;;;;10.73;81.77;99594.50;5049929;28;20067;-70
2022/09/23 04:05:29;;;;;;;0.10;0.10;;;;;;;10.78;81.82;99594.47;5021988;28;20041;-71
2022/09/23 04:07:55;;;;;;;0.20;0.20;;;;;;;10.81;81.32;99595.00;5036553;28;20864;-70
2022/09/23 04:10:22;;;;;;;0.20;0.15;;;;;;;10.87;81.26;99599.38;5042370;28;20045;-72
2022/09/23 04:12:49;;;;;;;0.10;0.10;;;;;;;10.93;80.87;99598.22;5044304;28;20397;-70
2022/09/23 04:15:15;;;;;;;0.10;0.10;;;;;;;10.94;80.43;99593.59;5043235;28;20523;-71
2022/09/23 04:17:41;;;;;;;0.10;0.10;;;;;;;10.96;80.03;99594.13;5042403;28;20049;-71
2022/09/23 04:20:08;;;;;;;0.10;0.10;;;;;;;11.01;79.81;99594.06;5040728;28;20483;-72
2022/09/23 04:22:34;;;;;;;0.15;0.15;;;;;;;11.02;79.98;99591.06;5042578;28;20094;-71
2022/09/23 04:25:00;;;;;;;0.10;0.10;;;;;;;11.09;79.61;99587.19;5044036;28;20512;-71
2022/09/23 04:27:26;;;;;;;0.20;0.20;;;;;;;11.10;79.18;99583.34;5043602;28;20045;-71
2022/09/23 04:29:54;;;;;;;0.10;0.10;;;;;;;11.10;78.79;99586.91;5043956;28;20045;-71
2022/09/23 04:32:20;;;;;;;0.28;0.28;;;;;;;11.11;78.42;99576.78;5042153;28;20088;-71
2022/09/23 04:34:45;;;;;;;0.20;0.20;;;;;;;11.10;78.25;99570.50;5042987;28;20076;-69
2022/09/23 04:37:12;;;;;;;0.20;0.20;;;;;;;11.15;77.72;99569.63;5043734;28;20119;-71
2022/09/23 04:39:38;;;;;;;0.10;0.10;;;;;;;11.17;77.42;99561.97;5037661;28;20076;-70
2022/09/23 04:42:04;;;;;;;0.20;0.20;;;;;;;11.23;76.91;99557.25;5033940;28;20060;-70
2022/09/23 04:44:30;;;;;;;0.20;0.20;;;;;;;11.25;76.70;99563.28;5041842;28;20052;-70
2022/09/23 04:46:57;;;;;;;0.20;0.20;;;;;;;11.20;76.37;99548.53;5061996;28;20063;-69
2022/09/23 04:49:24;;;;;;;0.20;0.20;;;;;;;11.27;76.60;99552.88;5064203;28;20052;-70
2022/09/23 04:51:50;;;;;;;0.20;0.20;;;;;;;11.36;76.03;99551.13;5062589;28;20071;-70
2022/09/23 04:54:16;;;;;;;0.15;0.15;;;;;;;11.43;75.58;99554.38;5061558;28;20048;-71
2022/09/23 04:56:42;;;;;;;0.20;0.20;;;;;;;11.48;75.63;99557.06;5059976;28;20067;-71
2022/09/23 04:59:09;;;;;;;0.85;0.20;;;;;;;11.58;75.46;99552.63;5061969;28;20055;-70
2022/09/23 05:01:35;;;;;;;0.32;0.20;;;;;;;11.68;75.10;99555.25;5061206;28;20049;-71
2022/09/23 05:04:05;;;;;;;0.10;0.10;;;;;;;11.73;74.18;99560.69;5060553;28;20052;-71
2022/09/23 05:06:33;;;;;;;0.20;0.20;;;;;;;11.80;74.15;99562.25;4699260;28;10000379;-70
2022/09/23 05:08:59;;;;;;;0.15;0.15;;;;;;;11.86;73.65;99561.94;5055379;28;20051;-70
2022/09/23 05:11:28;;;;;;;0.20;0.20;;;;;;;11.81;72.81;99544.72;5051181;28;20048;-70
2022/09/23 05:13:54;;;;;;;0.20;0.20;;;;;;;11.96;71.82;99568.41;5060784;28;20040;-70
2022/09/23 05:16:22;;;;;;;0.20;0.20;;;;;;;11.94;71.68;99565.13;5053850;28;20044;-70
2022/09/23 05:18:49;;;;;;;0.20;0.20;;;;;;;11.94;71.65;99559.66;5057992;28;20048;-70
2022/09/23 05:21:19;;;;;;;0.20;0.20;;;;;;;11.95;71.11;99559.38;5058246;28;20506;-70
2022/09/23 05:23:47;;;;;;;0.10;0.10;;;;;;;11.96;71.17;99565.69;5061707;28;20057;-71
2022/09/23 05:26:14;;;;;;;0.20;0.20;;;;;;;12.05;71.14;99562.03;5067074;28;20041;-71
2022/09/23 05:28:40;;;;;;;0.20;0.20;;;;;;;12.11;70.52;99556.50;5064264;28;20048;-71
2022/09/23 05:31:11;;;;;;;0.20;0.20;;;;;;;12.20;70.07;99554.75;5028328;28;20051;-69
2022/09/23 05:33:37;;;;;;;0.30;0.30;;;;;;;12.34;69.85;99550.22;5062465;28;20186;-71
2022/09/23 05:36:05;;;;;;;0.20;0.20;;;;;;;12.39;69.75;99563.00;5062530;28;20139;-71
2022/09/23 05:38:33;;;;;;;0.20;0.20;;;;;;;12.28;69.73;99550.56;5050582;28;20109;-70
2022/09/23 05:41:01;;;;;;;0.20;0.20;;;;;;;12.23;69.55;99554.16;5009999;28;20052;-70
2022/09/23 05:43:28;;;;;;;0.20;0.20;;;;;;;12.33;68.91;99555.97;5051246;28;20640;-70
2022/09/23 05:46:00;;;;;;;0.20;0.20;;;;;;;12.51;68.64;99559.88;5056603;28;20056;-71
2022/09/23 05:48:28;;;;;;;0.20;0.20;;;;;;;12.60;67.83;99562.78;5053061;28;20055;-71
2022/09/23 05:50:54;;;;;;;0.20;0.20;;;;;;;12.57;68.75;99553.22;5042317;28;20095;-71
2022/09/23 05:53:20;;;;;;;0.20;0.20;;;;;;;12.54;68.70;99559.28;5054927;28;20067;-71
2022/09/23 05:55:48;;;;;;;0.10;0.10;;;;;;;12.52;68.98;99561.50;5024994;28;20052;-71
2022/09/23 05:58:15;;;;;;;0.30;0.30;;;;;;;12.56;69.33;99568.03;5035243;28;20064;-71
2022/09/23 06:00:42;;;;;;;0.30;0.30;;;;;;;12.69;68.75;99565.69;5055539;28;20069;-71
2022/09/23 06:03:11;;;;;;;0.20;0.20;;;;;;;12.79;67.85;99561.97;5057040;28;20041;-69
2022/09/23 06:05:39;;;;;;;0.20;0.20;;;;;;;12.83;67.75;99561.09;5054043;28;20055;-71
2022/09/23 06:08:05;;;;;;;;;;;;;;;12.88;67.57;99563.75;5049828;28;20110;-71
2022/09/23 06:10:35;;;;;;;0.20;0.20;;;;;;;12.89;67.66;99557.16;5055052;28;19928;-71
2022/09/23 06:13:03;;;;;;;0.30;0.30;;;;;;;12.90;67.71;99564.28;5040958;28;20049;-70
2022/09/23 06:15:29;;;;;;;0.20;0.20;;;;;;;12.98;67.77;99551.03;5064924;28;20105;-71
2022/09/23 06:17:55;;;;;;;0.30;0.30;;;;;;;13.13;67.15;99555.44;5068798;28;20052;-71
2022/09/23 06:20:21;;;;;;;0.20;0.20;;;;;;;13.21;67.11;99551.22;5055669;28;20056;-72
2022/09/23 06:22:47;;;;;;;0.20;0.20;;;;;;;13.38;66.50;99553.44;5047637;28;20411;-71
2022/09/23 06:25:13;;;;;;;0.30;0.30;;;;;;;13.62;66.07;99556.06;5020405;28;20092;-70
2022/09/23 06:27:39;;;;;;;0.30;0.30;;;;;;;13.88;65.09;99553.69;5029445;28;20057;-70
2022/09/23 06:30:08;;;;;;;0.30;0.30;;;;;;;14.08;65.20;99562.66;5009368;28;20049;-71
2022/09/23 06:32:34;;;;;;;0.20;0.20;;;;;;;14.22;64.72;99567.34;5026591;28;20056;-71
2022/09/23 06:35:00;;;;;;;0.32;0.30;;;;;;;14.21;63.68;99577.56;5043629;28;20049;-69
2022/09/23 06:37:26;;;;;;;0.30;0.30;;;;;;;13.97;64.68;99591.44;5031110;28;20053;-71
2022/09/23 06:39:53;;;;;;;0.20;0.20;;;;;;;13.80;65.17;99584.59;5047667;28;20052;-71
2022/09/23 06:42:19;;;;;;;0.30;0.30;;;;;;;13.78;65.04;99584.06;5050309;28;20055;-71
2022/09/23 06:44:46;;;;;;;0.20;0.20;;;;;;;13.92;64.55;99588.78;5052293;28;20044;-70
2022/09/23 06:47:14;;;;;;;0.20;0.20;;;;;;;14.01;64.44;99582.28;5017998;28;20147;-71
2022/09/23 06:49:40;;;;;;;0.40;0.30;;;;;;;14.10;64.03;99574.16;5048143;28;20064;-71
2022/09/23 06:52:06;;;;;;;0.30;0.30;;;;;;;14.01;64.04;99568.56;5048002;28;20056;-71
2022/09/23 06:54:32;;;;;;;0.20;0.20;;;;;;;13.90;64.44;99567.94;5048468;28;20142;-71
2022/09/23 06:56:58;;;;;;;0.20;0.20;;;;;;;13.71;64.37;99570.72;5048832;28;20045;-72
2022/09/23 06:59:24;;;;;;;0.22;0.22;;;;;;;13.51;65.06;99571.91;5057613;28;20089;-71
2022/09/23 07:01:53;;;;;;;0.30;0.30;;;;;;;13.36;65.75;99566.66;5029203;28;20171;-72
2022/09/23 07:04:20;;;;;;;0.20;0.20;;;;;;;13.13;66.55;99559.03;5039404;28;20087;-71
2022/09/23 07:06:46;;;;;;;0.20;0.20;;;;;;;13.02;66.91;99555.59;5039116;28;20041;-71
2022/09/23 07:09:12;;;;;;;0.20;0.20;;;;;;;12.95;67.32;99570.78;5032368;28;20045;-71
2022/09/23 07:11:39;;;;;;;0.20;0.20;;;;;;;12.84;67.62;99560.00;5053850;28;20052;-70
2022/09/23 07:14:06;;;;;;;0.20;0.20;;;;;;;12.72;68.14;99562.34;5031396;28;20055;-71
2022/09/23 07:16:33;;;;;;;0.20;0.20;;;;;;;12.56;68.67;99551.56;5047812;28;20044;-71
2022/09/23 07:18:59;;;;;;;0.30;0.30;;;;;;;12.59;68.67;99566.63;5049114;28;20059;-71
2022/09/23 07:21:27;;;;;;;0.20;0.20;;;;;;;12.54;68.93;99563.94;5046116;28;20045;-71
2022/09/23 07:23:54;;;;;;;;;;;;;;;12.67;68.90;99570.66;5049047;28;20420;-71
2022/09/23 07:26:21;;;;;;;0.30;0.30;;;;;;;12.93;67.96;99562.06;5046430;28;19960;-71
2022/09/23 07:28:53;;;;;;;0.30;0.30;;;;;;;13.23;67.41;99562.72;5047801;28;20149;-69
2022/09/23 07:31:19;;;;;;;0.30;0.30;;;;;;;13.52;65.98;99561.72;5035750;28;20036;-71
2022/09/23 07:33:46;;;;;;;0.30;0.30;;;;;;;13.72;65.72;99563.31;5030907;28;20051;-71
2022/09/23 07:36:16;;;;;;;0.30;0.30;;;;;;;13.71;64.60;99553.44;5062732;28;20036;-71
2022/09/23 07:38:44;;;;;;;0.20;0.20;;;;;;;13.72;64.37;99555.88;5051470;28;20049;-72
2022/09/23 07:41:12;;;;;;;0.25;0.25;;;;;;;13.74;64.72;99556.41;5043890;28;20547;-71
2022/09/23 07:43:39;;;;;;;0.30;0.30;;;;;;;13.61;64.68;99541.50;5040676;28;20111;-71
2022/09/23 07:46:09;;;;;;;0.25;0.20;;;;;;;13.64;64.62;99553.84;5040288;28;20147;-71
2022/09/23 07:48:36;;;;;;;0.20;0.20;;;;;;;13.46;65.45;99553.59;5043552;28;20106;-71
2022/09/23 07:51:06;;;;;;;0.30;0.30;;;;;;;13.28;65.30;99554.41;5045687;28;20118;-73
2022/09/23 07:53:32;;;;;;;0.30;0.30;;;;;;;13.18;66.16;99555.38;5044823;28;20044;-71
2022/09/23 07:55:59;;;;;;;0.20;0.20;;;;;;;13.16;66.29;99552.94;5042509;28;20206;-71
2022/09/23 07:58:25;;;;;;;0.20;0.20;;;;;;;13.23;66.00;99557.22;5032753;28;20057;-71
2022/09/23 08:00:52;;;;;;;0.43;0.40;;;;;;;13.21;66.36;99560.28;5043443;28;20606;-72
2022/09/23 08:03:19;;;;;;;0.30;0.30;;;;;;;13.18;65.75;99550.69;5036873;28;20076;-71
2022/09/23 08:05:45;;;;;;;0.20;0.20;;;;;;;13.30;65.76;99552.19;5035407;28;20049;-71
2022/09/23 08:08:12;;;;;;;0.30;0.30;;;;;;;13.45;65.31;99554.72;5037866;28;20500;-71
2022/09/23 08:10:38;;;;;;;;;;;;;;;13.52;64.50;99559.81;5033365;28;20265;-69
2022/09/23 08:13:06;;;;;;;0.43;0.20;;;;;;;13.59;64.04;99548.44;5026238;28;19962;-71
2022/09/23 08:15:31;;;;;;;;;;;;;;;13.68;63.97;99549.38;5030600;28;20195;-71
2022/09/23 08:17:58;;;;;;;0.30;0.30;;;;;;;13.75;63.54;99548.97;5036675;28;20439;-71
2022/09/23 08:20:43;;;;;;;0.30;0.30;;;;;;;13.80;63.27;99546.13;5040181;28;20527;-70
2022/09/23 08:23:09;;;;;;;0.30;0.30;;;;;;;13.80;63.55;99546.13;5034774;28;20053;-71
2022/09/23 08:25:35;;;;;;;0.20;0.20;;;;;;;13.74;63.36;99544.59;5034727;28;20052;-71
2022/09/23 08:28:02;;;;;;;0.20;0.20;;;;;;;13.76;63.75;99545.09;5033445;28;20077;-71
2022/09/23 08:30:29;;;;;;;0.30;0.30;;;;;;;13.84;63.28;99540.84;5044048;28;20829;-71
2022/09/23 08:32:55;;;;;;;0.30;0.30;;;;;;;13.94;62.98;99546.16;5039126;28;20416;-72
2022/09/23 08:35:21;;;;;;;0.30;0.30;;;;;;;13.89;62.97;99543.50;5046533;28;20088;-71
2022/09/23 08:37:47;;;;;;;0.20;0.20;;;;;;;13.83;63.05;99545.53;5042198;28;20531;-71
2022/09/23 08:40:14;;;;;;;0.30;0.30;;;;;;;13.69;63.25;99542.75;5046844;28;20040;-72
2022/09/23 08:42:42;;;;;;;0.20;0.20;;;;;;;13.61;63.66;99548.94;5028753;28;20130;-71
2022/09/23 08:45:15;;;;;;;0.25;0.25;;;;;;;13.50;63.67;99545.53;5045480;28;20535;-72
2022/09/23 08:47:48;;;;;;;0.20;0.20;;;;;;;13.32;63.68;99517.00;5042372;28;20112;-71
2022/09/23 08:50:19;;;;;;;0.20;0.20;;;;;;;13.41;63.24;99539.88;5041103;28;20051;-71
2022/09/23 08:52:51;;;;;;;0.20;0.20;;;;;;;13.28;63.26;99540.69;5047613;28;20162;-71
2022/09/23 08:55:18;;;;;;;0.52;0.30;;;;;;;13.33;63.29;99554.31;5043669;28;20073;-70
2022/09/23 08:57:52;;;;;;;0.30;0.30;;;;;;;13.43;62.52;99562.44;5048753;28;20057;-71
2022/09/23 09:00:21;;;;;;;0.30;0.30;;;;;;;13.60;62.12;99555.56;5041586;28;20515;-71
2022/09/23 09:02:49;;;;;;;0.30;0.30;;;;;;;13.79;61.09;99563.72;5041602;28;20045;-70
2022/09/23 09:05:23;;;;;;;0.30;0.30;;;;;;;13.81;61.38;99557.94;5049886;28;20123;-70
2022/09/23 09:07:50;;;;;;;0.32;0.32;;;;;;;14.07;60.38;99560.22;5050068;28;20051;-69
2022/09/23 09:10:20;;;;;;;0.40;0.40;;;;;;;14.26;59.09;99554.63;5025814;28;20050;-70
2022/09/23 09:12:50;;;;;;;0.40;0.40;;;;;;;14.52;58.35;99554.09;5030255;28;20389;-72
2022/09/23 09:15:20;;;;;;;0.30;0.30;;;;;;;14.81;57.08;99539.22;5023299;28;20081;-70
2022/09/23 09:18:00;;;;;;;0.30;0.30;;;;;;;15.07;56.33;99544.13;5037873;28;20343;-70
2022/09/23 09:20:37;;;;;;;0.30;0.30;;;;;;;15.10;56.21;99546.25;5035302;28;20048;-70
2022/09/23 09:23:13;;;;;;;0.30;0.30;;;;;;;15.13;56.10;99535.41;5044623;28;20140;-70
2022/09/23 09:25:43;;;;;;;0.30;0.30;;;;;;;15.20;56.23;99521.22;5052220;28;20048;-71
2022/09/23 09:28:15;;;;;;;0.30;0.30;;;;;;;15.26;55.55;99530.16;5048093;28;20044;-70
2022/09/23 09:30:43;;;;;;;0.40;0.40;;;;;;;15.31;55.51;99521.81;5047788;28;20512;-70
2022/09/23 09:33:14;;;;;;;0.80;0.40;;;;;;;15.43;55.08;99519.28;5041882;28;20045;-70
2022/09/23 09:35:56;;;;;;;0.35;0.35;;;;;;;15.66;54.63;99502.72;5047256;28;20095;-72
2022/09/23 09:38:22;;;;;;;0.38;0.38;;;;;;;15.92;53.72;99499.31;5043756;28;20185;-72
2022/09/23 09:40:48;;;;;;;0.30;0.30;;;;;;;15.98;53.92;99502.72;5045762;28;20140;-72
2022/09/23 09:43:21;;;;;;;0.30;0.30;;;;;;;15.81;54.58;99495.97;5045814;28;20057;-72
2022/09/23 09:45:58;;;;;;;0.93;0.40;;;;;;;15.61;54.92;99500.09;5058601;28;20060;-72
2022/09/23 09:48:32;;;;;;;0.30;0.30;;;;;;;15.31;55.88;99506.06;5053031;28;20103;-72
2022/09/23 09:51:17;;;;;;;0.30;0.30;;;;;;;14.85;56.52;99510.75;5051529;28;20045;-70
2022/09/23 09:53:43;;;;;;;0.20;0.20;;;;;;;14.52;56.87;99508.16;5049220;28;20063;-69
2022/09/23 09:56:13;;;;;;;0.20;0.20;;;;;;;14.30;57.23;99500.66;5046940;28;20072;-69
2022/09/23 09:58:45;;;;;;;0.30;0.30;;;;;;;14.20;57.33;99517.34;5049593;28;20041;-70
2022/09/23 10:01:22;;;;;;;0.20;0.20;;;;;;;14.08;57.39;99523.38;5066143;28;20045;-72
2022/09/23 10:03:52;;;;;;;0.28;0.28;;;;;;;14.10;57.76;99524.69;5053343;28;20907;-69
2022/09/23 10:06:23;;;;;;;0.30;0.30;;;;;;;14.25;57.66;99520.00;5046449;28;20051;-72
2022/09/23 10:09:14;;;;;;;0.30;0.30;;;;;;;14.44;57.18;99511.63;5047055;28;20545;-69
2022/09/23 10:11:40;;;;;;;0.30;0.30;;;;;;;14.74;55.85;99514.88;5049917;28;20595;-72
2022/09/23 10:14:12;;;;;;;0.30;0.30;;;;;;;15.10;54.82;99511.28;5055588;28;20040;-72
2022/09/23 10:16:40;;;;;;;0.30;0.30;;;;;;;15.40;53.49;99508.09;5049866;28;20060;-70
2022/09/23 10:19:23;;;;;;;0.30;0.30;;;;;;;15.55;52.65;99517.88;5042411;28;20051;-72
2022/09/23 10:21:53;;;;;;;0.30;0.30;;;;;;;15.53;52.44;99504.44;5039953;28;20333;-72
2022/09/23 10:24:23;;;;;;;0.30;0.30;;;;;;;15.43;51.90;99508.25;5039707;28;20524;-70
2022/09/23 10:26:55;;;;;;;0.30;0.30;;;;;;;15.35;51.91;99514.53;5047595;28;20051;-70
2022/09/23 10:29:23;;;;;;;0.30;0.30;;;;;;;15.40;51.95;99508.88;5045903;28;20106;-69
2022/09/23 10:32:09;;;;;;;0.30;0.30;;;;;;;15.46;51.76;99509.56;5043217;28;20080;-69
2022/09/23 10:34:42;;;;;;;0.30;0.30;;;;;;;15.26;52.14;99506.22;5042223;28;20045;-70
2022/09/23 10:37:15;;;;;;;0.30;0.30;;;;;;;15.00;52.83;99508.78;5046810;28;20076;-70
2022/09/23 10:48:20;;;;;;;0.40;0.40;;;;;;;15.39;52.49;99487.19;5057046;28;20115;-69
2022/09/23 10:50:50;;;;;;;0.60;0.40;;;;;;;15.78;50.90;99468.25;5054854;28;20048;-69
2022/09/23 10:53:25;;;;;;;0.65;0.40;;;;;;;16.67;49.83;99476.44;5045551;28;20224;-69
2022/09/23 10:56:11;;;;;;;0.40;0.40;;;;;;;17.17;48.21;99466.03;5044980;28;20049;-70
2022/09/23 10:59:08;;;;;;;0.30;0.30;;;;;;;16.94;47.90;99480.03;5044673;28;20503;-70
2022/09/23 11:01:42;;;;;;;0.55;0.30;;;;;;;16.61;48.68;99477.72;5050187;28;20048;-70
2022/09/23 11:04:23;;;;;;;0.30;0.30;;;;;;;16.14;49.61;99468.06;5052501;28;20049;-69
2022/09/23 11:07:06;;;;;;;0.30;0.30;;;;;;;15.77;50.40;99466.63;5053056;28;20068;-69
2022/09/23 11:09:43;;;;;;;0.30;0.30;;;;;;;15.42;51.63;99459.00;5054767;28;20055;-69
2022/09/23 11:12:16;;;;;;;;;;;;;;;15.12;52.72;99461.41;5049194;28;20041;-68
2022/09/23 11:14:58;;;;;;;0.30;0.30;;;;;;;14.91;53.62;99458.34;5054373;28;19938;-69
2022/09/23 11:17:47;;;;;;;0.30;0.30;;;;;;;14.87;53.74;99450.72;5054512;28;20420;-68
2022/09/23 11:20:30;;;;;;;0.65;0.32;;;;;;;15.01;53.66;99447.09;5053971;28;20345;-70
2022/09/23 11:23:25;;;;;;;0.30;0.30;;;;;;;15.21;52.75;99458.72;5049163;28;20052;-69
2022/09/23 11:25:58;;;;;;;0.32;0.30;;;;;;;15.43;52.29;99444.09;5054659;28;20106;-69
2022/09/23 11:28:52;;;;;;;0.30;0.30;;;;;;;15.55;52.00;99438.00;5051070;28;20055;-69
2022/09/23 11:31:29;;;;;;;0.30;0.30;;;;;;;15.55;52.30;99446.25;5046591;28;20493;-69
2022/09/23 11:34:01;;;;;;;;;;;;;;;15.49;51.94;99444.78;5041406;28;20053;-69
2022/09/23 11:36:35;;;;;;;0.20;0.20;;;;;;;15.27;51.98;99439.00;5047746;28;19925;-70
2022/09/23 11:39:12;;;;;;;0.30;0.30;;;;;;;15.02;51.93;99443.22;5044373;28;20081;-69
2022/09/23 11:41:41;;;;;;;0.30;0.30;;;;;;;14.88;51.90;99433.06;5046114;28;20052;-69
2022/09/23 11:44:15;;;;;;;0.20;0.20;;;;;;;14.89;52.43;99439.38;5042717;28;20053;-69
2022/09/23 11:46:45;;;;;;;0.20;0.20;;;;;;;14.79;52.57;99423.94;5048970;28;20051;-72
2022/09/23 11:49:18;;;;;;;0.20;0.20;;;;;;;14.59;52.54;99419.69;5047124;28;20044;-71
2022/09/23 11:52:00;;;;;;;0.43;0.30;;;;;;;14.41;53.04;99440.75;5040515;28;20458;-69
2022/09/23 11:54:36;;;;;;;0.30;0.30;;;;;;;14.23;53.29;99446.06;5052508;28;20040;-70
2022/09/23 11:57:08;;;;;;;0.20;0.20;;;;;;;14.10;53.23;99449.66;5040373;28;20512;-72